Terminal Aerodrome Forecast
Issued by NWS

Home | Current Version | Previous Version | Text Only | Print | Product List | Glossary On
Versions: 1 2 3 4 5 6 7 8 9 10 11 12 13 14 15
000
FTUS42 KILM 291723
TAFCRE
TAF
KCRE 291723Z 2918/3018 11011KT P6SM SCT030 SCT070
     FM300100 13005KT P6SM SCT020
     FM300800 10003KT 6SM BR BKN015
     FM301300 12008KT P6SM SCT020 BKN035=

USA.gov is the U.S. government's official web portal to all federal, state and local government web resources and services.